createdAt,value
2018-08-08T00:04:48.926Z,86.40
2018-08-08T00:07:17.126Z,88.40
2018-08-08T00:09:45.330Z,88.60
2018-08-08T00:12:13.931Z,89.00
2018-08-08T00:14:42.452Z,89.80
2018-08-08T00:17:10.649Z,90.10
2018-08-08T00:19:39.518Z,90.20
2018-08-08T00:22:08.135Z,90.20
2018-08-08T00:24:36.322Z,90.60
2018-08-08T00:27:04.582Z,90.90
2018-08-08T00:29:32.823Z,90.90
2018-08-08T00:32:01.114Z,91.40
2018-08-08T00:34:29.484Z,91.50
2018-08-08T00:36:58.082Z,92.00
2018-08-08T00:39:26.286Z,92.60
2018-08-08T00:41:55.223Z,93.30
2018-08-08T00:44:23.430Z,93.40
2018-08-08T00:46:51.618Z,93.60
2018-08-08T00:49:19.852Z,94.00
2018-08-08T00:51:48.124Z,94.60
2018-08-08T00:54:16.942Z,94.90
2018-08-08T00:56:45.156Z,95.20
2018-08-08T00:59:13.755Z,95.20
2018-08-08T01:01:41.958Z,95.60
2018-08-08T01:04:10.525Z,95.90
2018-08-08T01:06:38.703Z,96.40
2018-08-08T01:09:07.717Z,97.00
2018-08-08T01:11:35.946Z,96.80
2018-08-08T01:14:04.647Z,97.40
2018-08-08T01:16:33.528Z,98.70
2018-08-08T01:19:02.497Z,98.70
2018-08-08T01:21:30.719Z,99.00
2018-08-08T01:23:58.915Z,98.80
2018-08-08T01:26:27.126Z,99.10
2018-08-08T01:28:55.318Z,99.90
2018-08-08T01:31:23.593Z,99.90
2018-08-08T01:33:52.227Z,99.90
2018-08-08T01:36:20.890Z,99.90
2018-08-08T01:38:49.100Z,99.90
2018-08-08T01:41:17.623Z,99.90
2018-08-08T01:43:46.770Z,99.90
2018-08-08T01:46:14.955Z,99.90
2018-08-08T01:48:43.141Z,99.90
2018-08-08T01:51:11.362Z,99.90
2018-08-08T01:53:40.162Z,99.90
2018-08-08T01:56:08.427Z,99.90
2018-08-08T01:58:37.442Z,99.90
2018-08-08T02:01:05.658Z,99.90
2018-08-08T02:03:34.470Z,99.90
2018-08-08T02:06:04.150Z,99.90
2018-08-08T02:08:32.821Z,99.90
2018-08-08T02:11:01.068Z,99.90
2018-08-08T02:13:29.970Z,99.90
2018-08-08T02:15:58.171Z,99.90
2018-08-08T02:18:27.146Z,99.90
2018-08-08T02:20:55.326Z,99.90
2018-08-08T02:23:23.513Z,99.90
2018-08-08T02:25:51.730Z,99.90
2018-08-08T02:28:19.938Z,99.90
2018-08-08T02:30:48.234Z,99.90
2018-08-08T02:33:16.580Z,99.90
2018-08-08T02:35:45.223Z,99.90
2018-08-08T02:38:13.625Z,99.90
2018-08-08T02:40:42.626Z,99.90
2018-08-08T02:43:11.171Z,99.90
2018-08-08T02:45:39.368Z,99.90
2018-08-08T02:48:07.607Z,99.90
2018-08-08T02:50:37.113Z,99.90
2018-08-08T02:53:05.873Z,99.90
2018-08-08T02:55:34.675Z,99.90
2018-08-08T02:58:02.957Z,99.90
2018-08-08T03:00:31.148Z,99.90
2018-08-08T03:02:59.415Z,99.90
2018-08-08T03:05:28.116Z,99.90
2018-08-08T03:07:56.327Z,99.90
2018-08-08T03:10:24.546Z,99.90
2018-08-08T03:15:26.395Z,99.90
2018-08-08T03:17:55.351Z,99.90
2018-08-08T03:20:23.558Z,99.90
2018-08-08T03:22:51.760Z,99.90
2018-08-08T03:25:20.618Z,99.90
2018-08-08T03:27:48.818Z,99.90
2018-08-08T03:30:19.085Z,99.90
2018-08-08T03:32:47.747Z,99.90
2018-08-08T03:35:18.376Z,99.90
2018-08-08T03:37:46.553Z,99.90
2018-08-08T03:40:16.203Z,99.90
2018-08-08T03:42:44.710Z,99.90
2018-08-08T03:45:14.299Z,99.90
2018-08-08T03:47:42.515Z,99.90
2018-08-08T03:50:11.771Z,99.90
2018-08-08T03:52:41.075Z,99.90
2018-08-08T03:55:10.537Z,99.90
2018-08-08T03:57:38.711Z,99.90
2018-08-08T04:00:11.634Z,99.90
2018-08-08T04:02:39.872Z,99.90
2018-08-08T04:05:08.470Z,99.90
2018-08-08T04:07:37.021Z,99.90
2018-08-08T04:10:05.480Z,99.90
2018-08-08T04:12:33.976Z,99.90
2018-08-08T04:15:02.568Z,99.90
2018-08-08T04:17:37.359Z,99.90
2018-08-08T04:20:06.678Z,99.90
2018-08-08T04:22:34.878Z,99.90
2018-08-08T04:25:03.160Z,99.90
2018-08-08T04:27:31.455Z,99.90
2018-08-08T04:29:59.928Z,99.90
2018-08-08T04:34:50.271Z,99.90
2018-08-08T04:37:18.650Z,99.90
2018-08-08T04:39:59.522Z,99.90
2018-08-08T04:42:27.752Z,99.90
2018-08-08T04:44:55.989Z,99.90
2018-08-08T04:47:24.215Z,99.90
2018-08-08T04:49:52.422Z,99.90
2018-08-08T04:54:54.952Z,99.90
2018-08-08T04:57:23.236Z,99.90
2018-08-08T04:59:51.518Z,99.90
2018-08-08T05:02:19.765Z,99.90
2018-08-08T05:04:48.470Z,99.90
2018-08-08T05:07:16.676Z,99.90
2018-08-08T05:09:44.886Z,99.90
2018-08-08T05:12:13.119Z,99.90
2018-08-08T05:14:41.908Z,99.90
2018-08-08T05:17:10.097Z,99.90
2018-08-08T05:19:38.726Z,99.90
2018-08-08T05:22:06.926Z,99.90
2018-08-08T05:24:35.855Z,99.90
2018-08-08T05:27:04.050Z,99.90
2018-08-08T05:29:32.251Z,99.90
2018-08-08T05:32:00.462Z,99.90
2018-08-08T05:34:28.678Z,99.90
2018-08-08T05:36:57.514Z,99.90
2018-08-08T05:39:25.739Z,99.90
2018-08-08T05:41:53.942Z,99.90
2018-08-08T05:44:22.183Z,99.90
2018-08-08T05:46:50.386Z,99.90
2018-08-08T05:49:18.698Z,99.90
2018-08-08T05:51:46.951Z,99.90
2018-08-08T05:54:15.542Z,99.90
2018-08-08T05:56:43.810Z,99.90
2018-08-08T05:59:11.991Z,99.90
2018-08-08T06:01:40.450Z,99.90
2018-08-08T06:04:09.122Z,99.90
2018-08-08T06:06:37.348Z,99.90
2018-08-08T06:09:07.982Z,99.90
2018-08-08T06:11:36.312Z,99.90
2018-08-08T06:14:05.917Z,99.90
2018-08-08T06:16:34.564Z,99.90
2018-08-08T06:19:03.338Z,99.90
2018-08-08T06:21:31.542Z,99.90
2018-08-08T06:23:59.918Z,99.90
2018-08-08T06:26:28.838Z,99.90
2018-08-08T06:29:03.292Z,99.90
2018-08-08T06:31:31.510Z,99.90
2018-08-08T06:34:00.307Z,99.90
2018-08-08T06:36:29.010Z,99.90
2018-08-08T06:38:57.258Z,99.90
2018-08-08T06:41:25.972Z,99.90
2018-08-08T06:43:54.274Z,99.90
2018-08-08T06:46:22.470Z,98.60
2018-08-08T06:48:50.711Z,99.20
2018-08-08T06:51:18.995Z,98.00
2018-08-08T06:53:47.764Z,97.70
2018-08-08T06:56:15.983Z,97.20
2018-08-08T06:58:44.203Z,96.80
2018-08-08T07:01:12.431Z,96.40
2018-08-08T07:03:40.624Z,96.70
2018-08-08T07:06:09.330Z,96.10
2018-08-08T07:08:37.844Z,94.70
2018-08-08T07:11:06.077Z,94.10
2018-08-08T07:13:35.020Z,93.50
2018-08-08T07:16:03.289Z,91.90
2018-08-08T07:18:32.008Z,90.20
2018-08-08T07:21:00.247Z,90.60
2018-08-08T07:23:29.030Z,90.80
2018-08-08T07:25:57.202Z,91.80
2018-08-08T07:28:25.698Z,92.80
2018-08-08T07:30:53.927Z,93.10
2018-08-08T07:33:22.133Z,93.40
2018-08-08T07:35:51.132Z,93.90
2018-08-08T07:38:19.326Z,94.30
2018-08-08T07:40:47.529Z,94.20
2018-08-08T07:43:15.756Z,94.20
2018-08-08T07:45:44.048Z,94.90
2018-08-08T07:48:12.243Z,93.60
2018-08-08T07:50:40.586Z,92.30
2018-08-08T07:53:09.119Z,88.90
2018-08-08T07:55:37.332Z,83.80
2018-08-08T07:58:05.999Z,79.30
2018-08-08T08:00:34.150Z,74.20
2018-08-08T08:03:02.760Z,65.30
2018-08-08T08:05:31.459Z,61.20
2018-08-08T08:07:59.671Z,59.40
2018-08-08T08:10:28.687Z,56.40
2018-08-08T08:13:03.001Z,52.80
2018-08-08T08:15:31.203Z,51.20
2018-08-08T08:17:59.617Z,46.60
2018-08-08T08:20:28.253Z,45.30
2018-08-08T08:22:56.444Z,45.20
2018-08-08T08:25:24.648Z,44.70
2018-08-08T08:27:52.849Z,42.50
2018-08-08T08:30:21.107Z,42.70
2018-08-08T08:32:49.432Z,42.00
2018-08-08T08:35:17.657Z,41.70
2018-08-08T08:37:45.849Z,43.30
2018-08-08T08:40:14.291Z,39.80
2018-08-08T08:42:43.058Z,39.20
2018-08-08T08:45:11.477Z,40.80
2018-08-08T08:47:39.681Z,38.70
2018-08-08T08:50:08.850Z,37.40
2018-08-08T08:52:37.550Z,38.50
2018-08-08T08:55:05.990Z,36.90
2018-08-08T08:57:34.294Z,35.90
2018-08-08T09:00:02.523Z,35.60
2018-08-08T09:02:30.818Z,35.40
2018-08-08T09:04:59.446Z,35.90
2018-08-08T09:07:28.137Z,35.40
2018-08-08T09:09:57.119Z,33.30
2018-08-08T09:12:25.323Z,34.60
2018-08-08T09:14:54.252Z,34.40
2018-08-08T09:17:22.427Z,35.10
2018-08-08T09:19:51.136Z,34.20
2018-08-08T09:22:19.363Z,32.40
2018-08-08T09:24:47.562Z,32.60
2018-08-08T09:27:15.779Z,32.00
2018-08-08T09:29:49.267Z,30.50
2018-08-08T09:32:17.568Z,30.60
2018-08-08T09:34:45.813Z,30.90
2018-08-08T09:37:14.532Z,32.20
2018-08-08T09:39:42.740Z,31.20
2018-08-08T09:42:11.639Z,30.80
2018-08-08T09:44:39.927Z,30.50
2018-08-08T09:47:08.147Z,30.10
2018-08-08T09:49:36.382Z,29.80
2018-08-08T09:52:04.579Z,29.80
2018-08-08T09:54:33.402Z,31.50
2018-08-08T09:57:02.487Z,30.40
2018-08-08T09:59:30.683Z,29.60
2018-08-08T10:02:04.295Z,30.40
2018-08-08T10:04:35.146Z,30.60
2018-08-08T10:07:04.986Z,30.20
2018-08-08T10:09:33.506Z,29.40
2018-08-08T10:12:01.716Z,28.50
2018-08-08T10:14:30.902Z,29.30
2018-08-08T10:16:59.161Z,29.70
2018-08-08T10:19:27.706Z,29.40
2018-08-08T10:21:55.893Z,29.80
2018-08-08T10:24:24.132Z,29.50
2018-08-08T10:26:52.765Z,29.40
2018-08-08T10:29:20.933Z,28.90
2018-08-08T10:31:49.851Z,28.10
2018-08-08T10:34:18.063Z,27.80
2018-08-08T10:36:46.281Z,28.60
2018-08-08T10:39:14.508Z,28.70
2018-08-08T10:41:42.865Z,29.00
2018-08-08T10:44:11.134Z,28.80
2018-08-08T10:46:39.361Z,30.40
2018-08-08T10:49:07.563Z,30.00
2018-08-08T10:51:35.759Z,30.00
2018-08-08T10:54:04.485Z,29.90
2018-08-08T10:56:33.451Z,30.50
2018-08-08T10:59:01.715Z,30.50
2018-08-08T11:01:29.938Z,30.40
2018-08-08T11:03:58.962Z,29.00
2018-08-08T11:06:27.589Z,28.70
2018-08-08T11:08:55.820Z,28.40
2018-08-08T11:11:24.050Z,27.90
2018-08-08T11:13:53.082Z,29.00
2018-08-08T11:16:21.619Z,28.30
2018-08-08T11:18:50.280Z,27.90
2018-08-08T11:21:18.458Z,28.30
2018-08-08T11:23:47.026Z,28.80
2018-08-08T11:26:15.247Z,29.60
2018-08-08T11:28:43.490Z,31.80
2018-08-08T11:31:11.719Z,32.50
2018-08-08T11:33:39.934Z,35.00
2018-08-08T11:36:08.194Z,35.50
2018-08-08T11:38:36.437Z,37.30
2018-08-08T11:41:04.713Z,37.80
2018-08-08T11:43:32.950Z,38.90
2018-08-08T11:46:01.610Z,40.10
2018-08-08T11:48:29.822Z,41.00
2018-08-08T11:50:58.053Z,42.80
2018-08-08T11:53:26.838Z,44.20
2018-08-08T11:55:55.011Z,43.90
2018-08-08T11:58:23.227Z,45.50
2018-08-08T12:00:54.597Z,45.60
2018-08-08T12:03:23.773Z,46.40
2018-08-08T12:05:52.662Z,46.10
2018-08-08T12:08:20.902Z,43.90
2018-08-08T12:10:49.114Z,44.80
2018-08-08T12:13:17.815Z,43.10
2018-08-08T12:15:46.391Z,43.00
2018-08-08T12:18:15.047Z,42.30
2018-08-08T12:20:43.246Z,43.90
2018-08-08T12:23:11.478Z,42.20
2018-08-08T12:25:39.732Z,41.80
2018-08-08T12:28:07.887Z,41.60
2018-08-08T12:30:36.154Z,40.70
2018-08-08T12:33:04.398Z,40.70
2018-08-08T12:35:32.691Z,41.50
2018-08-08T12:38:00.832Z,40.80
2018-08-08T12:40:29.403Z,41.30
2018-08-08T12:42:57.735Z,40.40
2018-08-08T12:45:25.903Z,40.40
2018-08-08T12:47:54.182Z,40.60
2018-08-08T12:50:22.415Z,41.90
2018-08-08T12:52:51.251Z,41.00
2018-08-08T12:55:19.842Z,41.90
2018-08-08T12:57:48.094Z,41.20
2018-08-08T13:00:16.329Z,41.90
2018-08-08T13:02:44.562Z,42.00
2018-08-08T13:05:13.103Z,41.60
2018-08-08T13:07:41.307Z,42.00
2018-08-08T13:10:09.499Z,40.70
2018-08-08T13:12:37.708Z,39.60
2018-08-08T13:15:06.966Z,38.80
2018-08-08T13:17:47.687Z,40.20
2018-08-08T13:20:15.914Z,40.80
2018-08-08T13:22:44.088Z,40.70
2018-08-08T13:25:18.291Z,41.50
2018-08-08T13:27:46.487Z,42.10
2018-08-08T13:30:14.723Z,42.20
2018-08-08T13:32:42.931Z,42.30
2018-08-08T13:35:11.156Z,41.80
2018-08-08T13:37:39.554Z,42.10
2018-08-08T13:40:07.755Z,41.60
2018-08-08T13:42:36.531Z,41.60
2018-08-08T13:45:05.827Z,42.60
2018-08-08T13:47:34.007Z,44.20
2018-08-08T13:50:02.278Z,43.20
2018-08-08T13:52:31.500Z,42.10
2018-08-08T13:54:59.725Z,42.80
2018-08-08T13:57:29.050Z,43.10
2018-08-08T13:59:57.301Z,43.10
2018-08-08T14:02:25.494Z,43.30
2018-08-08T14:04:53.988Z,43.80
2018-08-08T14:07:22.184Z,44.10
2018-08-08T14:09:50.479Z,41.80
2018-08-08T14:12:18.942Z,42.10
2018-08-08T14:14:47.802Z,43.30
2018-08-08T14:17:16.078Z,41.50
2018-08-08T14:19:44.973Z,42.10
2018-08-08T14:22:13.155Z,41.30
2018-08-08T14:24:42.036Z,42.20
2018-08-08T14:27:10.303Z,42.10
2018-08-08T14:29:38.458Z,44.40
2018-08-08T14:32:06.777Z,42.40
2018-08-08T14:34:35.766Z,43.20
2018-08-08T14:37:04.066Z,41.40
2018-08-08T14:39:32.250Z,42.70
2018-08-08T14:42:00.619Z,43.00
2018-08-08T14:44:28.890Z,42.50
2018-08-08T14:46:57.145Z,43.10
2018-08-08T14:49:25.662Z,42.90
2018-08-08T14:53:23.588Z,42.90
2018-08-08T14:55:52.155Z,43.20
2018-08-08T14:58:20.343Z,43.40
2018-08-08T15:00:48.575Z,43.20
2018-08-08T15:03:16.826Z,43.90
2018-08-08T15:05:45.317Z,44.10
2018-08-08T15:08:13.486Z,43.80
2018-08-08T15:10:42.058Z,43.40
2018-08-08T15:13:10.847Z,43.70
2018-08-08T15:15:39.110Z,43.50
2018-08-08T15:18:08.338Z,44.10
2018-08-08T15:20:36.547Z,44.80
2018-08-08T15:23:05.400Z,45.20
2018-08-08T15:25:33.543Z,45.60
2018-08-08T15:28:01.748Z,45.90
2018-08-08T15:30:30.206Z,44.80
2018-08-08T15:32:58.411Z,43.90
2018-08-08T15:35:26.633Z,44.70
2018-08-08T15:37:54.972Z,43.20
2018-08-08T15:40:23.367Z,43.60
2018-08-08T15:42:51.579Z,43.20
2018-08-08T15:45:19.779Z,43.40
2018-08-08T15:47:47.969Z,44.20
2018-08-08T15:50:16.186Z,43.70
2018-08-08T15:52:44.782Z,44.60
2018-08-08T15:55:13.106Z,43.90
2018-08-08T15:57:41.792Z,44.90
2018-08-08T16:00:11.662Z,43.60
2018-08-08T16:02:39.967Z,43.50
2018-08-08T16:05:09.127Z,43.10
2018-08-08T16:07:38.087Z,42.60
2018-08-08T16:10:08.162Z,43.80
2018-08-08T16:12:36.361Z,43.90
2018-08-08T16:15:05.212Z,44.70
2018-08-08T16:17:40.390Z,44.70
2018-08-08T16:20:08.657Z,44.70
2018-08-08T16:22:36.797Z,44.40
2018-08-08T16:25:05.338Z,45.30
2018-08-08T16:27:33.550Z,45.50
2018-08-08T16:32:42.742Z,44.70
2018-08-08T16:35:10.938Z,44.40
2018-08-08T16:37:39.146Z,45.70
2018-08-08T16:40:07.847Z,45.30
2018-08-08T16:42:36.066Z,46.20
2018-08-08T16:45:05.946Z,45.60
2018-08-08T16:47:34.326Z,46.40
2018-08-08T16:50:02.732Z,45.20
2018-08-08T16:52:31.265Z,45.40
2018-08-08T16:54:59.446Z,45.90
2018-08-08T16:57:27.677Z,44.20
2018-08-08T16:59:55.894Z,42.90
2018-08-08T17:02:24.074Z,43.50
2018-08-08T17:04:52.556Z,44.50
2018-08-08T17:07:21.195Z,44.30
2018-08-08T17:09:49.390Z,43.20
2018-08-08T17:12:18.006Z,43.40
2018-08-08T17:17:15.448Z,42.60
2018-08-08T17:19:44.033Z,41.80
2018-08-08T17:22:12.286Z,41.50
2018-08-08T17:24:40.537Z,44.30
2018-08-08T17:27:08.839Z,42.80
2018-08-08T17:29:37.259Z,41.90
2018-08-08T17:32:05.612Z,42.60
2018-08-08T17:34:33.918Z,42.90
2018-08-08T17:37:02.174Z,42.10
2018-08-08T17:39:30.671Z,43.60
2018-08-08T17:41:58.869Z,43.60
2018-08-08T17:44:27.122Z,42.40
2018-08-08T17:46:55.450Z,43.00
2018-08-08T17:49:23.918Z,42.80
2018-08-08T17:51:52.277Z,43.80
2018-08-08T17:54:20.858Z,43.40
2018-08-08T17:56:49.334Z,44.40
2018-08-08T17:59:17.542Z,45.10
2018-08-08T18:01:46.084Z,43.70
2018-08-08T18:04:14.796Z,43.60
2018-08-08T18:06:43.046Z,43.40
2018-08-08T18:09:11.678Z,44.00
2018-08-08T18:11:40.369Z,43.90
2018-08-08T18:14:09.153Z,44.70
2018-08-08T18:16:37.721Z,44.80
2018-08-08T18:19:06.484Z,45.40
2018-08-08T18:21:34.736Z,45.40
2018-08-08T18:24:03.000Z,46.00
2018-08-08T18:26:31.360Z,46.20
2018-08-08T18:28:59.941Z,45.70
2018-08-08T18:31:28.634Z,46.40
2018-08-08T18:33:56.922Z,46.30
2018-08-08T18:36:25.189Z,47.90
2018-08-08T18:38:53.645Z,49.00
2018-08-08T18:41:21.881Z,47.70
2018-08-08T18:43:50.212Z,48.40
2018-08-08T18:46:18.395Z,48.70
2018-08-08T18:48:46.892Z,49.10
2018-08-08T18:51:15.209Z,49.40
2018-08-08T18:53:43.938Z,51.00
2018-08-08T18:56:12.447Z,51.30
2018-08-08T18:58:40.756Z,51.10
2018-08-08T19:01:09.008Z,52.30
2018-08-08T19:03:37.324Z,51.70
2018-08-08T19:06:06.778Z,51.80
2018-08-08T19:08:35.629Z,51.90
2018-08-08T19:11:03.874Z,52.30
2018-08-08T19:13:32.505Z,52.50
2018-08-08T19:16:01.013Z,52.80
2018-08-08T19:18:29.533Z,52.90
2018-08-08T19:20:57.759Z,52.00
2018-08-08T19:23:25.992Z,52.80
2018-08-08T19:25:54.236Z,54.30
2018-08-08T19:28:22.849Z,55.00
2018-08-08T19:30:51.703Z,53.80
2018-08-08T19:33:20.139Z,54.10
2018-08-08T19:35:48.409Z,55.00
2018-08-08T19:38:16.878Z,54.20
2018-08-08T19:40:45.801Z,54.30
2018-08-08T19:43:14.080Z,55.20
2018-08-08T19:45:42.415Z,56.80
2018-08-08T19:48:10.688Z,57.30
2018-08-08T19:50:54.556Z,57.40
2018-08-08T19:53:24.268Z,57.60
2018-08-08T19:55:53.555Z,57.60
2018-08-08T19:58:22.036Z,57.60
2018-08-08T20:00:50.838Z,57.30
2018-08-08T20:03:20.141Z,57.90
2018-08-08T20:05:48.807Z,58.50
2018-08-08T20:08:25.432Z,57.50
2018-08-08T20:10:55.657Z,58.40
2018-08-08T20:13:24.535Z,58.30
2018-08-08T20:15:55.356Z,58.60
2018-08-08T20:18:24.477Z,59.40
2018-08-08T20:20:53.215Z,59.60
2018-08-08T20:23:21.628Z,60.00
2018-08-08T20:25:50.069Z,60.70
2018-08-08T20:28:18.705Z,61.70
2018-08-08T20:30:48.105Z,61.50
2018-08-08T20:33:16.899Z,62.30
2018-08-08T20:35:45.233Z,62.30
2018-08-08T20:38:14.133Z,62.80
2018-08-08T20:40:42.740Z,63.30
2018-08-08T20:43:12.271Z,61.90
2018-08-08T20:45:40.564Z,63.90
2018-08-08T20:48:08.827Z,63.90
2018-08-08T20:50:37.047Z,65.50
2018-08-08T20:53:05.585Z,65.60
2018-08-08T20:55:33.838Z,65.90
2018-08-08T20:58:02.625Z,65.80
2018-08-08T21:00:30.993Z,67.60
2018-08-08T21:02:59.266Z,67.70
2018-08-08T21:05:27.932Z,67.50
2018-08-08T21:07:56.890Z,67.50
2018-08-08T21:10:25.205Z,68.10
2018-08-08T21:12:53.517Z,68.60
2018-08-08T21:15:22.278Z,69.10
2018-08-08T21:17:51.206Z,70.50
2018-08-08T21:20:19.944Z,70.30
2018-08-08T21:22:48.256Z,70.60
2018-08-08T21:25:16.997Z,71.20
2018-08-08T21:27:45.981Z,71.60
2018-08-08T21:30:14.889Z,71.90
2018-08-08T21:32:43.096Z,72.20
2018-08-08T21:35:11.900Z,72.00
2018-08-08T21:37:40.173Z,72.90
2018-08-08T21:40:09.119Z,72.70
2018-08-08T21:42:37.389Z,71.80
2018-08-08T21:45:05.986Z,73.00
2018-08-08T21:47:34.471Z,73.50
2018-08-08T21:50:02.918Z,72.80
2018-08-08T21:52:31.981Z,74.20
2018-08-08T21:55:11.963Z,72.30
2018-08-08T21:57:51.781Z,73.20
2018-08-08T22:00:31.509Z,73.70
2018-08-08T22:03:17.102Z,74.30
2018-08-08T22:05:56.918Z,75.30
2018-08-08T22:08:36.627Z,75.80
2018-08-08T22:11:19.024Z,76.50
2018-08-08T22:13:59.209Z,77.50
2018-08-08T22:16:42.007Z,77.00
2018-08-08T22:19:37.499Z,78.10
2018-08-08T22:22:05.837Z,79.60
2018-08-08T22:24:34.085Z,81.10
2018-08-08T22:27:02.929Z,80.30
2018-08-08T22:29:35.373Z,79.90
2018-08-08T22:32:03.921Z,81.40
2018-08-08T22:34:32.148Z,81.70
2018-08-08T22:37:00.581Z,81.80
2018-08-08T22:39:29.249Z,82.90
2018-08-08T22:41:57.500Z,84.40
2018-08-08T22:44:25.741Z,84.30
2018-08-08T22:46:54.531Z,84.30
2018-08-08T22:49:22.844Z,84.70
2018-08-08T22:51:51.092Z,84.00
2018-08-08T22:54:19.543Z,82.40
2018-08-08T22:56:47.764Z,83.00
2018-08-08T22:59:16.019Z,83.50
2018-08-08T23:01:44.416Z,83.40
2018-08-08T23:04:13.545Z,85.50
2018-08-08T23:06:41.790Z,83.90
2018-08-08T23:09:10.993Z,84.80
2018-08-08T23:11:39.684Z,85.70
2018-08-08T23:14:08.313Z,86.00
2018-08-08T23:16:37.481Z,86.60
2018-08-08T23:19:06.554Z,86.00
2018-08-08T23:21:34.856Z,86.30
2018-08-08T23:24:03.115Z,86.60
2018-08-08T23:26:31.378Z,86.40
2018-08-08T23:28:59.662Z,85.90
2018-08-08T23:31:28.295Z,87.30
2018-08-08T23:33:57.357Z,88.70
2018-08-08T23:36:25.657Z,89.90
2018-08-08T23:41:17.116Z,90.30
2018-08-08T23:43:45.391Z,90.60
2018-08-08T23:46:13.703Z,90.70
2018-08-08T23:48:42.502Z,91.00
2018-08-08T23:51:10.710Z,91.60
2018-08-08T23:53:46.304Z,91.30
2018-08-08T23:56:14.584Z,91.50
